createdAt,value
2023-02-22T00:01:47.399Z,13.18
2023-02-22T00:04:15.978Z,13.50
2023-02-22T00:06:42.674Z,10.98
2023-02-22T00:09:10.336Z,11.10
2023-02-22T00:11:38.531Z,9.73
2023-02-22T00:14:05.592Z,13.35
2023-02-22T00:18:58.773Z,13.95
2023-02-22T00:21:25.458Z,14.82
2023-02-22T00:23:54.589Z,11.48
2023-02-22T00:26:23.497Z,12.82
2023-02-22T00:28:56.504Z,10.65
2023-02-22T00:31:26.191Z,8.88
2023-02-22T00:33:52.703Z,9.85
2023-02-22T00:36:20.087Z,11.32
2023-02-22T00:41:15.317Z,8.70
2023-02-22T00:43:42.361Z,9.55
2023-02-22T00:46:09.074Z,9.45
2023-02-22T00:48:35.634Z,8.50
2023-02-22T00:51:02.298Z,12.05
2023-02-22T00:53:29.734Z,8.57
2023-02-22T00:55:56.312Z,11.13
2023-02-22T00:58:24.362Z,11.23
2023-02-22T01:00:51.123Z,10.25
2023-02-22T01:03:20.421Z,9.45
2023-02-22T01:05:47.820Z,9.32
2023-02-22T01:08:16.056Z,10.35
2023-02-22T01:10:42.938Z,8.45
2023-02-22T01:13:12.209Z,9.10
2023-02-22T01:15:41.801Z,9.77
2023-02-22T01:18:11.522Z,11.13
2023-02-22T01:20:39.548Z,9.70
2023-02-22T01:23:08.079Z,10.88
2023-02-22T01:25:35.688Z,11.27
2023-02-22T01:28:04.451Z,8.80
2023-02-22T01:30:35.267Z,11.55
2023-02-22T01:33:03.790Z,13.07
2023-02-22T01:35:36.250Z,10.68
2023-02-22T01:38:02.934Z,11.45
2023-02-22T01:40:36.478Z,11.13
2023-02-22T01:43:25.547Z,9.82
2023-02-22T01:45:58.259Z,13.85
2023-02-22T01:48:33.798Z,11.77
2023-02-22T01:51:11.342Z,10.80
2023-02-22T01:53:46.299Z,10.50
2023-02-22T01:56:14.890Z,12.55
2023-02-22T01:58:46.252Z,12.98
2023-02-22T02:01:14.199Z,12.25
2023-02-22T02:03:41.979Z,10.18
2023-02-22T02:06:14.896Z,14.45
2023-02-22T02:08:53.554Z,9.70
2023-02-22T02:11:25.394Z,11.88
2023-02-22T02:13:55.131Z,11.95
2023-02-22T02:16:34.618Z,9.70
2023-02-22T02:19:01.432Z,11.73
2023-02-22T02:21:55.045Z,9.10
2023-02-22T02:25:18.604Z,11.68
2023-02-22T02:28:17.147Z,14.02
2023-02-22T02:30:49.923Z,12.07
2023-02-22T02:33:38.196Z,11.93
2023-02-22T02:36:27.980Z,10.10
2023-02-22T02:39:01.619Z,9.82
2023-02-22T02:41:35.408Z,11.50
2023-02-22T02:44:04.557Z,21.73
2023-02-22T02:46:36.707Z,10.65
2023-02-22T02:49:11.181Z,10.18
2023-02-22T02:51:44.310Z,8.43
2023-02-22T02:54:11.740Z,9.38
2023-02-22T02:56:38.443Z,8.50
2023-02-22T02:59:25.352Z,11.88
2023-02-22T03:01:57.925Z,10.93
2023-02-22T03:04:59.978Z,14.07
2023-02-22T03:08:14.030Z,15.45
2023-02-22T03:10:47.182Z,11.77
2023-02-22T03:13:29.147Z,13.05
2023-02-22T03:16:16.564Z,14.25
2023-02-22T03:21:32.044Z,9.18
2023-02-22T03:24:43.690Z,13.07
2023-02-22T03:27:25.869Z,8.05
2023-02-22T03:30:00.391Z,10.35
2023-02-22T03:32:34.247Z,8.35
2023-02-22T03:35:16.555Z,12.05
2023-02-22T03:37:48.888Z,10.00
2023-02-22T03:40:30.041Z,9.35
2023-02-22T03:43:02.353Z,12.98
2023-02-22T03:45:30.777Z,8.00
2023-02-22T03:48:23.407Z,9.25
2023-02-22T03:50:51.013Z,6.80
2023-02-22T03:53:20.101Z,7.32
2023-02-22T03:55:53.564Z,7.15
2023-02-22T03:58:24.993Z,10.95
2023-02-22T04:00:53.247Z,11.18
2023-02-22T04:03:21.078Z,10.57
2023-02-22T04:05:47.808Z,14.95
2023-02-22T04:08:14.467Z,12.20
2023-02-22T04:10:41.164Z,8.85
2023-02-22T04:13:08.762Z,10.82
2023-02-22T04:15:38.246Z,7.07
2023-02-22T04:18:07.131Z,9.50
2023-02-22T04:20:35.869Z,9.50
2023-02-22T04:23:11.045Z,9.45
2023-02-22T04:25:40.013Z,7.63
2023-02-22T04:28:15.179Z,10.68
2023-02-22T04:30:47.128Z,8.05
2023-02-22T04:33:16.189Z,7.75
2023-02-22T04:35:42.774Z,8.13
2023-02-22T04:38:12.177Z,11.45
2023-02-22T04:40:41.631Z,10.45
2023-02-22T04:43:09.848Z,12.82
2023-02-22T04:45:36.415Z,8.10
2023-02-22T04:48:04.591Z,15.90
2023-02-22T04:50:31.114Z,16.30
2023-02-22T04:52:57.718Z,9.38
2023-02-22T04:55:24.636Z,11.88
2023-02-22T04:57:51.177Z,11.45
2023-02-22T05:00:21.653Z,9.00
2023-02-22T05:02:49.977Z,9.18
2023-02-22T05:05:19.273Z,11.15
2023-02-22T05:07:48.197Z,6.93
2023-02-22T05:10:15.195Z,12.95
2023-02-22T05:15:09.480Z,11.85
2023-02-22T05:17:36.510Z,10.07
2023-02-22T05:22:31.010Z,9.80
2023-02-22T05:24:57.573Z,7.97
2023-02-22T05:27:24.627Z,12.73
2023-02-22T05:32:17.625Z,12.23
2023-02-22T05:34:44.266Z,10.50
2023-02-22T05:37:10.776Z,12.68
2023-02-22T05:39:37.269Z,11.95
2023-02-22T05:42:04.158Z,15.82
2023-02-22T05:44:30.826Z,15.50
2023-02-22T05:46:57.326Z,13.52
2023-02-22T05:49:23.950Z,16.23
2023-02-22T05:51:50.534Z,23.52
2023-02-22T05:54:17.026Z,19.85
2023-02-22T05:56:43.580Z,17.75
2023-02-22T05:59:10.106Z,22.08
2023-02-22T06:01:36.674Z,11.90
2023-02-22T06:04:03.318Z,11.65
2023-02-22T06:06:29.899Z,12.98
2023-02-22T06:08:56.464Z,10.43
2023-02-22T06:11:22.998Z,22.75
2023-02-22T06:13:51.936Z,13.85
2023-02-22T06:16:21.554Z,13.43
2023-02-22T06:18:48.704Z,11.98
2023-02-22T06:26:08.391Z,11.93
2023-02-22T06:28:35.030Z,11.82
2023-02-22T06:31:01.550Z,11.13
2023-02-22T06:33:28.655Z,14.35
2023-02-22T06:35:55.529Z,16.38
2023-02-22T06:38:24.277Z,17.08
2023-02-22T06:40:51.205Z,12.63
2023-02-22T06:43:17.775Z,12.80
2023-02-22T06:45:44.405Z,12.52
2023-02-22T06:48:10.936Z,13.63
2023-02-22T06:50:37.960Z,12.25
2023-02-22T06:55:33.320Z,10.00
2023-02-22T06:58:00.330Z,13.45
2023-02-22T07:00:31.308Z,15.35
2023-02-22T07:02:59.119Z,11.27
2023-02-22T07:05:26.892Z,12.30
2023-02-22T07:07:55.564Z,13.55
2023-02-22T07:10:31.027Z,12.38
2023-02-22T07:12:57.768Z,13.95
2023-02-22T07:15:26.381Z,15.45
2023-02-22T07:17:52.979Z,12.93
2023-02-22T07:20:20.973Z,11.63
2023-02-22T07:22:50.703Z,16.35
2023-02-22T07:25:17.686Z,16.05
2023-02-22T07:27:44.809Z,16.08
2023-02-22T07:30:33.110Z,15.32
2023-02-22T07:33:02.386Z,13.02
2023-02-22T07:35:31.942Z,15.68
2023-02-22T07:37:58.905Z,18.48
2023-02-22T07:40:26.988Z,13.95
2023-02-22T07:43:07.140Z,18.50
2023-02-22T07:45:35.547Z,11.75
2023-02-22T07:48:04.444Z,14.38
2023-02-22T07:50:32.607Z,20.02
2023-02-22T07:53:02.557Z,14.15
2023-02-22T07:55:31.414Z,15.43
2023-02-22T07:58:03.997Z,13.07
2023-02-22T08:00:33.400Z,19.15
2023-02-22T08:03:01.911Z,18.02
2023-02-22T08:05:30.303Z,14.80
2023-02-22T08:07:57.048Z,17.98
2023-02-22T08:10:26.430Z,15.50
2023-02-22T08:12:53.891Z,15.32
2023-02-22T08:15:24.442Z,14.88
2023-02-22T08:17:51.475Z,17.40
2023-02-22T08:22:44.922Z,15.52
2023-02-22T08:27:38.783Z,22.17
2023-02-22T08:30:06.499Z,18.25
2023-02-22T08:32:33.805Z,12.63
2023-02-22T08:35:01.279Z,16.40
2023-02-22T08:37:27.791Z,19.08
2023-02-22T08:39:56.114Z,19.25
2023-02-22T08:42:24.794Z,15.40
2023-02-22T08:44:51.367Z,22.70
2023-02-22T08:47:17.873Z,18.73
2023-02-22T08:49:44.881Z,18.00
2023-02-22T08:54:37.891Z,18.48
2023-02-22T08:57:04.608Z,18.17
2023-02-22T08:59:31.154Z,19.17
2023-02-22T09:01:57.735Z,14.80
2023-02-22T09:04:24.484Z,15.35
2023-02-22T09:06:51.897Z,21.15
2023-02-22T09:09:21.275Z,18.10
2023-02-22T09:11:52.674Z,15.85
2023-02-22T09:14:19.694Z,19.98
2023-02-22T09:16:46.421Z,15.60
2023-02-22T09:19:14.398Z,17.15
2023-02-22T09:21:40.992Z,19.77
2023-02-22T09:24:10.893Z,17.08
2023-02-22T09:26:39.474Z,18.30
2023-02-22T09:29:12.126Z,20.13
2023-02-22T09:31:40.634Z,19.17
2023-02-22T09:34:13.925Z,18.25
2023-02-22T09:36:46.183Z,19.85
2023-02-22T09:39:15.370Z,18.17
2023-02-22T09:42:07.806Z,20.50
2023-02-22T09:44:58.522Z,16.83
2023-02-22T09:47:48.494Z,20.10
2023-02-22T09:50:22.385Z,17.23
2023-02-22T09:53:14.382Z,21.52
2023-02-22T09:55:47.790Z,17.05
2023-02-22T09:58:24.363Z,15.40
2023-02-22T10:00:59.588Z,17.02
2023-02-22T10:03:50.477Z,18.45
2023-02-22T10:06:23.819Z,15.35
2023-02-22T10:08:56.598Z,15.82
2023-02-22T10:11:32.473Z,13.63
2023-02-22T10:14:34.574Z,16.17
2023-02-22T10:17:15.269Z,14.52
2023-02-22T10:19:54.878Z,14.93
2023-02-22T10:22:22.084Z,16.92
2023-02-22T10:27:38.427Z,13.38
2023-02-22T10:30:24.069Z,11.75
2023-02-22T10:33:19.169Z,14.98
2023-02-22T10:35:47.188Z,10.48
2023-02-22T10:38:20.125Z,13.20
2023-02-22T10:40:54.850Z,12.52
2023-02-22T10:43:23.333Z,13.15
2023-02-22T10:45:55.864Z,12.93
2023-02-22T10:48:26.319Z,11.10
2023-02-22T10:50:57.419Z,10.95
2023-02-22T10:53:27.720Z,13.45
2023-02-22T10:56:07.444Z,13.55
2023-02-22T10:58:45.668Z,10.18
2023-02-22T11:01:28.802Z,9.95
2023-02-22T11:04:17.981Z,10.75
2023-02-22T11:07:09.579Z,9.10
2023-02-22T11:09:50.284Z,10.07
2023-02-22T11:12:19.906Z,9.02
2023-02-22T11:14:47.174Z,10.30
2023-02-22T11:17:22.335Z,10.90
2023-02-22T11:19:50.582Z,10.30
2023-02-22T11:22:41.063Z,11.40
2023-02-22T11:25:08.725Z,11.38
2023-02-22T11:27:40.477Z,9.25
2023-02-22T11:30:27.711Z,10.25
2023-02-22T11:33:00.886Z,10.32
2023-02-22T11:35:35.819Z,14.45
2023-02-22T11:38:17.803Z,12.10
2023-02-22T11:40:45.795Z,14.90
2023-02-22T11:43:19.264Z,14.68
2023-02-22T11:46:02.718Z,17.20
2023-02-22T11:48:34.598Z,12.63
2023-02-22T11:51:17.239Z,12.57
2023-02-22T11:54:09.802Z,13.05
2023-02-22T11:56:41.141Z,12.90
2023-02-22T11:59:46.507Z,14.82
2023-02-22T12:02:56.590Z,14.73
2023-02-22T12:05:37.617Z,11.48
2023-02-22T12:08:20.211Z,15.93
2023-02-22T12:11:04.102Z,18.02
2023-02-22T12:13:42.592Z,18.55
2023-02-22T12:16:34.626Z,18.63
2023-02-22T12:19:26.292Z,43.33
2023-02-22T12:22:02.380Z,25.15
2023-02-22T12:24:44.427Z,24.90
2023-02-22T12:27:22.263Z,26.42
2023-02-22T12:29:57.767Z,20.90
2023-02-22T12:32:54.804Z,20.88
2023-02-22T12:35:46.205Z,18.75
2023-02-22T12:38:38.431Z,18.65
2023-02-22T12:41:18.956Z,16.88
2023-02-22T12:43:51.766Z,19.13
2023-02-22T12:46:30.541Z,21.92
2023-02-22T12:49:41.501Z,23.80
2023-02-22T12:52:22.178Z,20.45
2023-02-22T12:55:12.893Z,21.08
2023-02-22T12:57:57.168Z,17.10
2023-02-22T13:00:48.300Z,16.23
2023-02-22T13:03:14.827Z,16.70
2023-02-22T13:05:41.581Z,17.38
2023-02-22T13:08:30.062Z,14.30
2023-02-22T13:11:22.293Z,12.18
2023-02-22T13:14:00.273Z,14.25
2023-02-22T13:17:02.443Z,14.68
2023-02-22T13:20:08.355Z,14.07
2023-02-22T13:22:50.021Z,13.55
2023-02-22T13:25:21.479Z,14.73
2023-02-22T13:27:59.400Z,13.77
2023-02-22T13:30:40.649Z,16.80
2023-02-22T13:33:24.309Z,10.50
2023-02-22T13:36:17.523Z,12.02
2023-02-22T13:39:03.321Z,11.10
2023-02-22T13:41:48.445Z,15.98
2023-02-22T13:44:57.234Z,14.50
2023-02-22T13:47:40.965Z,11.48
2023-02-22T13:50:38.171Z,13.32
2023-02-22T13:53:12.091Z,16.10
2023-02-22T13:55:42.928Z,12.52
2023-02-22T13:58:12.452Z,14.52
2023-02-22T14:00:48.524Z,11.90
2023-02-22T14:03:15.264Z,13.38
2023-02-22T14:05:42.308Z,13.00
2023-02-22T14:08:27.951Z,11.52
2023-02-22T14:11:02.524Z,15.13
2023-02-22T14:13:31.165Z,23.95
2023-02-22T14:15:57.790Z,23.05
2023-02-22T14:18:42.005Z,26.15
2023-02-22T14:21:20.485Z,32.25
2023-02-22T14:23:50.743Z,49.58
2023-02-22T14:26:31.154Z,52.90
2023-02-22T14:29:02.793Z,54.85
2023-02-22T14:31:51.526Z,34.45
2023-02-22T14:35:00.751Z,25.67
2023-02-22T14:37:33.692Z,20.92
2023-02-22T14:40:19.587Z,19.40
2023-02-22T14:42:50.974Z,23.25
2023-02-22T14:45:29.932Z,21.70
2023-02-22T14:48:13.735Z,17.83
2023-02-22T14:50:48.818Z,13.27
2023-02-22T14:53:41.036Z,14.52
2023-02-22T14:56:36.216Z,11.68
2023-02-22T14:59:07.817Z,11.38
2023-02-22T15:01:49.337Z,14.38
2023-02-22T15:04:28.319Z,12.43
2023-02-22T15:06:57.095Z,13.35
2023-02-22T15:09:30.099Z,12.35
2023-02-22T15:12:04.021Z,20.13
2023-02-22T15:14:37.568Z,24.35
2023-02-22T15:17:18.372Z,16.85
2023-02-22T15:19:47.051Z,16.33
2023-02-22T15:22:35.811Z,12.93
2023-02-22T15:25:06.363Z,17.70
2023-02-22T15:27:36.987Z,16.20
2023-02-22T15:30:08.026Z,24.65
2023-02-22T15:32:36.690Z,27.80
2023-02-22T15:35:23.433Z,23.52
2023-02-22T15:38:10.969Z,29.55
2023-02-22T15:40:42.866Z,17.00
2023-02-22T15:43:24.276Z,17.45
2023-02-22T15:45:52.158Z,16.88
2023-02-22T15:48:19.643Z,14.10
2023-02-22T15:51:07.018Z,15.00
2023-02-22T15:53:40.151Z,11.43
2023-02-22T15:56:12.417Z,12.90
2023-02-22T15:58:39.455Z,11.13
2023-02-22T16:03:44.794Z,10.65
2023-02-22T16:06:17.796Z,15.07
2023-02-22T16:08:54.746Z,11.93
2023-02-22T16:11:35.805Z,14.40
2023-02-22T16:14:05.899Z,15.18
2023-02-22T16:16:41.555Z,13.98
2023-02-22T16:19:35.730Z,12.10
2023-02-22T16:22:05.208Z,11.25
2023-02-22T16:24:34.347Z,18.35
2023-02-22T16:27:13.161Z,20.20
2023-02-22T16:29:40.166Z,31.42
2023-02-22T16:34:33.779Z,18.70
2023-02-22T16:37:01.336Z,16.05
2023-02-22T16:39:30.354Z,11.43
2023-02-22T16:42:00.193Z,13.98
2023-02-22T16:44:28.026Z,12.07
2023-02-22T16:46:59.441Z,12.02
2023-02-22T16:49:26.969Z,13.35
2023-02-22T16:52:01.116Z,12.23
2023-02-22T16:54:39.688Z,12.95
2023-02-22T16:57:06.497Z,14.95
2023-02-22T16:59:38.541Z,11.98
2023-02-22T17:02:08.532Z,12.52
2023-02-22T17:04:35.276Z,14.07
2023-02-22T17:07:05.032Z,14.43
2023-02-22T17:09:32.929Z,12.23
2023-02-22T17:11:59.866Z,12.13
2023-02-22T17:14:32.791Z,14.93
2023-02-22T17:17:00.216Z,14.00
2023-02-22T17:19:27.313Z,11.98
2023-02-22T17:24:26.107Z,12.10
2023-02-22T17:26:53.221Z,10.77
2023-02-22T17:29:20.602Z,17.80
2023-02-22T17:31:50.940Z,14.68
2023-02-22T17:34:17.934Z,16.83
2023-02-22T17:41:40.534Z,13.18
2023-02-22T17:44:07.713Z,10.68
2023-02-22T17:46:36.122Z,11.82
2023-02-22T17:49:03.380Z,10.80
2023-02-22T17:51:30.063Z,11.10
2023-02-22T17:53:56.678Z,13.38
2023-02-22T17:56:23.364Z,14.65
2023-02-22T17:58:53.811Z,16.92
2023-02-22T18:01:30.731Z,16.95
2023-02-22T18:06:28.540Z,11.38
2023-02-22T18:08:57.061Z,10.55
2023-02-22T18:11:26.580Z,11.68
2023-02-22T18:13:57.619Z,9.23
2023-02-22T18:16:28.193Z,9.68
2023-02-22T18:18:55.774Z,10.55
2023-02-22T18:21:24.176Z,8.40
2023-02-22T18:23:50.806Z,10.77
2023-02-22T18:26:19.930Z,9.10
2023-02-22T18:28:48.716Z,7.45
2023-02-22T18:31:17.923Z,9.98
2023-02-22T18:33:50.451Z,12.48
2023-02-22T18:36:22.887Z,12.90
2023-02-22T18:38:52.284Z,10.25
2023-02-22T18:41:25.197Z,14.18
2023-02-22T18:43:54.997Z,11.38
2023-02-22T18:46:25.374Z,13.32
2023-02-22T18:48:56.898Z,23.38
2023-02-22T18:51:24.882Z,24.50
2023-02-22T18:53:56.991Z,18.55
2023-02-22T18:56:26.564Z,24.75
2023-02-22T18:58:54.703Z,22.23
2023-02-22T19:01:22.013Z,17.80
2023-02-22T19:03:48.966Z,12.55
2023-02-22T19:06:17.122Z,16.95
2023-02-22T19:08:45.406Z,13.80
2023-02-22T19:11:19.437Z,13.40
2023-02-22T19:13:47.538Z,11.23
2023-02-22T19:16:16.451Z,9.75
2023-02-22T19:18:44.191Z,11.40
2023-02-22T19:21:13.829Z,12.10
2023-02-22T19:23:45.540Z,8.48
2023-02-22T19:26:14.369Z,9.90
2023-02-22T19:28:40.934Z,8.95
2023-02-22T19:31:14.737Z,14.50
2023-02-22T19:33:42.115Z,12.27
2023-02-22T19:36:10.656Z,9.23
2023-02-22T19:38:37.764Z,13.05
2023-02-22T19:43:39.174Z,11.65
2023-02-22T19:46:07.338Z,12.48
2023-02-22T19:48:34.626Z,11.90
2023-02-22T19:51:10.189Z,14.27
2023-02-22T19:53:40.817Z,10.60
2023-02-22T19:56:09.593Z,11.48
2023-02-22T19:58:41.016Z,15.13
2023-02-22T20:01:14.419Z,13.68
2023-02-22T20:03:42.469Z,11.52
2023-02-22T20:06:12.362Z,13.07
2023-02-22T20:08:42.086Z,10.48
2023-02-22T20:11:10.501Z,10.27
2023-02-22T20:13:41.155Z,12.95
2023-02-22T20:16:09.906Z,10.63
2023-02-22T20:18:36.820Z,11.27
2023-02-22T20:21:11.377Z,14.02
2023-02-22T20:23:40.610Z,12.57
2023-02-22T20:26:15.209Z,11.13
2023-02-22T20:28:42.101Z,10.10
2023-02-22T20:31:11.279Z,11.30
2023-02-22T20:33:41.613Z,10.20
2023-02-22T20:36:10.407Z,12.43
2023-02-22T20:38:37.651Z,12.00
2023-02-22T20:41:09.660Z,14.90
2023-02-22T20:43:36.242Z,10.88
2023-02-22T20:46:05.294Z,15.27
2023-02-22T20:48:32.599Z,14.32
2023-02-22T20:51:07.254Z,11.60
2023-02-22T20:53:35.264Z,12.20
2023-02-22T20:56:02.365Z,11.90
2023-02-22T20:58:29.303Z,14.98
2023-02-22T21:00:55.899Z,24.88
2023-02-22T21:03:22.551Z,15.70
2023-02-22T21:05:49.122Z,12.98
2023-02-22T21:08:15.738Z,14.25
2023-02-22T21:10:44.749Z,11.80
2023-02-22T21:13:11.699Z,12.77
2023-02-22T21:15:43.522Z,13.40
2023-02-22T21:18:11.080Z,15.02
2023-02-22T21:20:40.818Z,17.77
2023-02-22T21:23:08.419Z,14.82
2023-02-22T21:25:35.072Z,11.73
2023-02-22T21:28:01.664Z,15.35
2023-02-22T21:30:28.543Z,14.82
2023-02-22T21:32:56.735Z,13.50
2023-02-22T21:35:25.090Z,18.98
2023-02-22T21:37:52.538Z,13.45
2023-02-22T21:40:19.318Z,15.00
2023-02-22T21:42:48.063Z,15.45
2023-02-22T21:45:20.480Z,13.95
2023-02-22T21:47:48.588Z,12.07
2023-02-22T21:50:18.096Z,14.82
2023-02-22T21:52:47.084Z,12.20
2023-02-22T21:55:15.207Z,12.73
2023-02-22T21:57:42.881Z,13.38
2023-02-22T22:00:28.955Z,16.65
2023-02-22T22:03:09.634Z,14.63
2023-02-22T22:05:39.404Z,12.52
2023-02-22T22:08:13.217Z,14.48
2023-02-22T22:10:39.887Z,12.93
2023-02-22T22:13:09.011Z,19.00
2023-02-22T22:15:37.385Z,15.52
2023-02-22T22:18:06.722Z,10.32
2023-02-22T22:20:34.007Z,14.98
2023-02-22T22:23:00.662Z,14.77
2023-02-22T22:25:28.418Z,14.50
2023-02-22T22:27:56.224Z,14.45
2023-02-22T22:30:23.475Z,18.75
2023-02-22T22:32:50.435Z,15.05
2023-02-22T22:35:17.050Z,15.27
2023-02-22T22:37:43.689Z,14.23
2023-02-22T22:40:15.661Z,15.77
2023-02-22T22:42:43.289Z,14.75
2023-02-22T22:45:11.710Z,12.98
2023-02-22T22:47:39.396Z,16.85
2023-02-22T22:50:07.240Z,16.73
2023-02-22T22:52:35.459Z,16.50
2023-02-22T22:55:02.707Z,14.43
2023-02-22T22:57:29.617Z,12.55
2023-02-22T22:59:56.251Z,15.48
2023-02-22T23:02:22.818Z,26.45
2023-02-22T23:04:50.360Z,19.30
2023-02-22T23:07:17.245Z,20.85
2023-02-22T23:09:44.063Z,22.23
2023-02-22T23:12:16.546Z,17.25
2023-02-22T23:14:44.645Z,18.80
2023-02-22T23:17:15.894Z,16.60
2023-02-22T23:19:46.987Z,23.85
2023-02-22T23:22:14.508Z,17.85
2023-02-22T23:24:42.680Z,15.00
2023-02-22T23:27:10.787Z,20.00
2023-02-22T23:29:39.645Z,18.60
2023-02-22T23:32:07.423Z,21.33
2023-02-22T23:34:36.252Z,18.80
2023-02-22T23:37:03.240Z,21.75
2023-02-22T23:42:00.696Z,17.17
2023-02-22T23:44:28.160Z,17.90
2023-02-22T23:46:55.334Z,16.48
2023-02-22T23:49:25.781Z,22.05
2023-02-22T23:51:52.782Z,22.98
2023-02-22T23:56:56.424Z,19.30
2023-02-22T23:59:25.478Z,18.25
